createdAt,value
2018-07-28T06:01:34.824Z,10.30
2018-07-28T06:04:03.092Z,9.97
2018-07-28T06:06:31.391Z,9.97
2018-07-28T06:08:59.593Z,10.50
2018-07-28T06:11:27.752Z,9.90
2018-07-28T06:13:55.989Z,10.60
2018-07-28T06:16:24.158Z,10.50
2018-07-28T06:18:52.296Z,9.73
2018-07-28T06:21:20.456Z,10.50
2018-07-28T06:23:48.669Z,9.73
2018-07-28T06:26:16.845Z,9.37
2018-07-28T06:28:45.041Z,9.27
2018-07-28T06:31:13.246Z,9.97
2018-07-28T06:33:41.394Z,8.87
2018-07-28T06:36:17.346Z,9.30
2018-07-28T06:38:45.538Z,8.37
2018-07-28T06:41:13.731Z,8.40
2018-07-28T06:43:41.930Z,9.07
2018-07-28T06:46:10.106Z,8.70
2018-07-28T06:48:38.269Z,9.47
2018-07-28T06:51:06.440Z,9.13
2018-07-28T06:53:34.647Z,9.00
2018-07-28T06:56:02.874Z,9.60
2018-07-28T06:58:31.081Z,10.63
2018-07-28T07:00:59.257Z,8.83
2018-07-28T07:03:27.585Z,9.67
2018-07-28T07:05:55.788Z,8.90
2018-07-28T07:08:23.974Z,9.13
2018-07-28T07:10:52.134Z,9.23
2018-07-28T07:13:36.570Z,9.60
2018-07-28T07:16:04.789Z,9.67
2018-07-28T07:18:32.969Z,9.00
2018-07-28T07:21:01.132Z,9.40
2018-07-28T07:23:29.313Z,8.70
2018-07-28T07:25:57.513Z,8.03
2018-07-28T07:28:25.675Z,8.60
2018-07-28T07:30:53.879Z,8.60
2018-07-28T07:33:22.063Z,9.00
2018-07-28T07:35:50.290Z,7.90
2018-07-28T07:38:18.456Z,8.60
2018-07-28T07:40:46.727Z,8.43
2018-07-28T07:43:14.925Z,8.30
2018-07-28T07:45:43.147Z,7.70
2018-07-28T07:48:11.299Z,8.77
2018-07-28T07:50:39.542Z,8.60
2018-07-28T07:53:07.748Z,7.90
2018-07-28T07:55:36.009Z,8.80
2018-07-28T07:58:04.153Z,8.03
2018-07-28T08:00:32.345Z,8.00
2018-07-28T08:03:00.584Z,7.10
2018-07-28T08:05:28.859Z,7.77
2018-07-28T08:07:57.076Z,8.33
2018-07-28T08:10:25.249Z,7.80
2018-07-28T08:12:53.428Z,7.53
2018-07-28T08:15:21.671Z,8.07
2018-07-28T08:17:49.856Z,7.73
2018-07-28T08:20:18.082Z,8.27
2018-07-28T08:22:46.295Z,7.60
2018-07-28T08:25:14.537Z,7.73
2018-07-28T08:27:42.783Z,8.20
2018-07-28T08:30:11.025Z,6.90
2018-07-28T08:32:39.215Z,7.57
2018-07-28T08:35:08.168Z,6.93
2018-07-28T08:37:36.413Z,7.47
2018-07-28T08:40:04.889Z,7.10
2018-07-28T08:42:33.133Z,7.40
2018-07-28T08:45:01.355Z,7.57
2018-07-28T08:47:29.628Z,6.60
2018-07-28T08:49:57.888Z,7.80
2018-07-28T08:52:26.177Z,7.13
2018-07-28T08:54:54.418Z,5.90
2018-07-28T08:57:22.704Z,7.37
2018-07-28T08:59:50.875Z,7.07
2018-07-28T09:02:19.114Z,6.40
2018-07-28T09:04:47.328Z,7.00
2018-07-28T09:07:15.552Z,6.20
2018-07-28T09:09:43.741Z,6.30
2018-07-28T09:12:12.003Z,6.40
2018-07-28T09:14:40.239Z,6.30
2018-07-28T09:17:08.464Z,6.17
2018-07-28T09:19:36.719Z,6.33
2018-07-28T09:22:04.940Z,7.40
2018-07-28T09:24:33.219Z,7.13
2018-07-28T09:27:01.506Z,7.13
2018-07-28T09:29:29.801Z,6.23
2018-07-28T09:31:57.993Z,6.90
2018-07-28T09:34:26.234Z,6.50
2018-07-28T09:36:54.477Z,7.07
2018-07-28T09:39:22.663Z,6.47
2018-07-28T09:41:50.937Z,6.17
2018-07-28T09:44:19.112Z,7.27
2018-07-28T09:46:47.319Z,5.60
2018-07-28T09:49:15.519Z,6.10
2018-07-28T09:51:44.204Z,6.50
2018-07-28T09:54:12.830Z,5.40
2018-07-28T09:56:41.065Z,6.10
2018-07-28T09:59:09.267Z,5.30
2018-07-28T10:01:37.510Z,5.37
2018-07-28T10:04:05.823Z,5.80
2018-07-28T10:06:34.148Z,6.17
2018-07-28T10:09:02.437Z,5.77
2018-07-28T10:11:30.612Z,6.27
2018-07-28T10:13:58.864Z,6.43
2018-07-28T10:16:27.054Z,6.30
2018-07-28T10:18:55.262Z,5.63
2018-07-28T10:21:23.490Z,5.30
2018-07-28T10:23:51.730Z,5.50
2018-07-28T10:26:22.478Z,5.60
2018-07-28T10:28:50.659Z,5.03
2018-07-28T10:31:18.793Z,5.43
2018-07-28T10:33:47.037Z,5.90
2018-07-28T10:36:15.228Z,6.27
2018-07-28T10:38:43.447Z,6.60
2018-07-28T10:41:11.729Z,5.83
2018-07-28T10:43:40.544Z,6.80
2018-07-28T10:46:08.789Z,7.07
2018-07-28T10:48:37.030Z,6.83
2018-07-28T10:51:05.196Z,6.10
2018-07-28T10:53:33.434Z,6.93
2018-07-28T10:56:01.625Z,6.87
2018-07-28T10:58:29.840Z,5.70
2018-07-28T11:00:58.089Z,5.90
2018-07-28T11:03:26.376Z,6.53
2018-07-28T11:05:54.536Z,6.70
2018-07-28T11:08:22.791Z,6.57
2018-07-28T11:10:51.029Z,6.47
2018-07-28T11:13:19.294Z,6.90
2018-07-28T11:15:47.570Z,6.80
2018-07-28T11:18:15.857Z,6.87
2018-07-28T11:20:44.043Z,7.30
2018-07-28T11:23:13.256Z,7.10
2018-07-28T11:25:41.472Z,6.83
2018-07-28T11:28:09.651Z,7.10
2018-07-28T11:30:37.880Z,7.27
2018-07-28T11:33:11.672Z,7.07
2018-07-28T11:35:45.461Z,6.60
2018-07-28T11:38:19.246Z,7.40
2018-07-28T11:40:53.028Z,7.30
2018-07-28T11:43:26.751Z,7.87
2018-07-28T11:45:54.969Z,7.47
2018-07-28T11:48:23.157Z,7.47
2018-07-28T11:50:51.370Z,7.50
2018-07-28T11:53:19.595Z,7.80
2018-07-28T11:55:47.819Z,8.37
2018-07-28T11:58:16.032Z,8.33
2018-07-28T12:00:44.398Z,7.60
2018-07-28T12:03:12.645Z,9.00
2018-07-28T12:05:40.850Z,8.00
2018-07-28T12:08:09.068Z,7.87
2018-07-28T12:10:37.614Z,7.63
2018-07-28T12:13:05.827Z,8.97
2018-07-28T12:15:34.065Z,8.63
2018-07-28T12:18:02.314Z,8.40
2018-07-28T12:20:30.573Z,8.40
2018-07-28T12:22:58.757Z,8.40
2018-07-28T12:25:27.078Z,8.37
2018-07-28T12:27:55.309Z,7.70
2018-07-28T12:30:23.533Z,9.07
2018-07-28T12:32:51.797Z,8.77
2018-07-28T12:35:20.013Z,8.40
2018-07-28T12:37:48.227Z,7.50
2018-07-28T12:40:16.444Z,8.90
2018-07-28T12:42:44.656Z,7.73
2018-07-28T12:45:12.896Z,8.00
2018-07-28T12:47:41.124Z,8.70
2018-07-28T12:50:09.536Z,7.70
2018-07-28T12:52:37.767Z,6.60
2018-07-28T12:55:06.011Z,7.83
2018-07-28T12:57:34.254Z,7.53
2018-07-28T13:00:02.462Z,7.83
2018-07-28T13:02:30.770Z,7.77
2018-07-28T13:04:58.988Z,7.00
2018-07-28T13:07:27.158Z,6.23
2018-07-28T13:09:55.458Z,6.47
2018-07-28T13:12:23.686Z,6.87
2018-07-28T13:14:52.510Z,6.37
2018-07-28T13:17:20.657Z,6.93
2018-07-28T13:19:48.860Z,7.23
2018-07-28T13:22:17.046Z,6.13
2018-07-28T13:24:45.247Z,6.50
2018-07-28T13:30:12.785Z,5.40
2018-07-28T13:32:41.028Z,5.70
2018-07-28T13:35:09.926Z,5.37
2018-07-28T13:37:38.547Z,5.57
2018-07-28T13:40:07.288Z,5.90
2018-07-28T13:42:35.492Z,5.37
2018-07-28T13:45:03.704Z,5.10
2018-07-28T13:47:31.947Z,5.70
2018-07-28T13:50:00.171Z,6.37
2018-07-28T13:52:28.394Z,6.20
2018-07-28T13:54:56.595Z,5.80
2018-07-28T13:57:25.351Z,6.13
2018-07-28T13:59:53.739Z,6.40
2018-07-28T14:02:22.077Z,5.97
2018-07-28T14:04:50.256Z,6.40
2018-07-28T14:07:18.553Z,6.90
2018-07-28T14:09:46.732Z,6.30
2018-07-28T14:12:15.254Z,6.50
2018-07-28T14:14:43.962Z,6.30
2018-07-28T14:17:12.180Z,5.53
2018-07-28T14:19:40.697Z,6.47
2018-07-28T14:22:08.956Z,5.40
2018-07-28T14:24:37.129Z,5.30
2018-07-28T14:27:05.404Z,5.10
2018-07-28T14:29:33.553Z,4.90
2018-07-28T14:32:01.770Z,5.23
2018-07-28T14:34:29.929Z,4.90
2018-07-28T14:36:58.119Z,6.00
2018-07-28T14:39:26.305Z,5.33
2018-07-28T14:41:54.488Z,5.17
2018-07-28T14:44:22.663Z,6.00
2018-07-28T14:46:50.909Z,5.73
2018-07-28T14:49:19.118Z,5.10
2018-07-28T14:51:47.292Z,6.00
2018-07-28T14:54:15.532Z,5.20
2018-07-28T14:56:43.723Z,5.30
2018-07-28T14:59:11.910Z,5.50
2018-07-28T15:01:40.119Z,5.97
2018-07-28T15:04:08.286Z,5.40
2018-07-28T15:06:36.552Z,5.87
2018-07-28T15:09:05.749Z,6.37
2018-07-28T15:11:34.035Z,5.60
2018-07-28T15:14:02.252Z,6.20
2018-07-28T15:16:30.476Z,5.40
2018-07-28T15:18:58.723Z,5.70
2018-07-28T15:21:26.963Z,5.70
2018-07-28T15:23:56.801Z,5.60
2018-07-28T15:26:25.036Z,6.03
2018-07-28T15:28:53.330Z,5.70
2018-07-28T15:31:22.102Z,6.20
2018-07-28T15:33:50.284Z,5.40
2018-07-28T15:36:18.448Z,5.23
2018-07-28T15:38:46.641Z,5.90
2018-07-28T15:41:14.812Z,6.43
2018-07-28T15:43:42.996Z,5.67
2018-07-28T15:46:11.343Z,6.63
2018-07-28T15:48:39.546Z,5.60
2018-07-28T15:51:07.734Z,6.10
2018-07-28T15:53:36.026Z,6.70
2018-07-28T15:56:04.216Z,5.93
2018-07-28T15:58:32.568Z,6.73
2018-07-28T16:01:00.773Z,6.33
2018-07-28T16:03:28.991Z,5.87
2018-07-28T16:05:57.241Z,5.93
2018-07-28T16:08:25.692Z,5.70
2018-07-28T16:10:53.921Z,6.10
2018-07-28T16:13:22.406Z,6.13
2018-07-28T16:15:50.630Z,5.57
2018-07-28T16:18:20.165Z,6.17
2018-07-28T16:20:48.430Z,5.63
2018-07-28T16:23:16.640Z,6.10
2018-07-28T16:25:44.831Z,6.20
2018-07-28T16:28:12.996Z,5.80
2018-07-28T16:30:41.175Z,6.17
2018-07-28T16:33:09.397Z,6.03
2018-07-28T16:35:37.607Z,6.20
2018-07-28T16:38:05.831Z,5.93
2018-07-28T16:40:34.025Z,6.00
2018-07-28T16:43:02.248Z,6.73
2018-07-28T16:45:30.518Z,5.90
2018-07-28T16:47:58.762Z,6.43
2018-07-28T16:50:30.293Z,6.13
2018-07-28T16:52:58.566Z,6.20
2018-07-28T16:55:26.819Z,5.93
2018-07-28T16:57:54.983Z,5.60
2018-07-28T17:00:23.154Z,5.90
2018-07-28T17:02:51.372Z,6.27
2018-07-28T17:05:19.554Z,7.00
2018-07-28T17:07:47.797Z,8.43
2018-07-28T17:10:16.013Z,6.07
2018-07-28T17:12:44.214Z,6.57
2018-07-28T17:15:12.432Z,6.10
2018-07-28T17:17:40.622Z,7.00
2018-07-28T17:20:08.864Z,5.57
2018-07-28T17:22:37.140Z,5.93
2018-07-28T17:25:05.274Z,6.40
2018-07-28T17:27:33.467Z,6.20
2018-07-28T17:30:01.703Z,5.90
2018-07-28T17:32:29.939Z,6.27
2018-07-28T17:34:58.522Z,6.97
2018-07-28T17:37:27.128Z,5.83
2018-07-28T17:39:55.691Z,7.33
2018-07-28T17:42:23.872Z,6.07
2018-07-28T17:44:52.064Z,6.40
2018-07-28T17:47:20.241Z,7.00
2018-07-28T17:49:48.451Z,6.23
2018-07-28T17:52:16.661Z,6.60
2018-07-28T17:54:44.880Z,6.77
2018-07-28T17:57:13.137Z,6.97
2018-07-28T17:59:41.343Z,6.23
2018-07-28T18:02:09.435Z,6.33
2018-07-28T18:04:37.653Z,5.80
2018-07-28T18:07:05.825Z,6.20
2018-07-28T18:09:34.024Z,5.57
2018-07-28T18:12:02.224Z,5.77
2018-07-28T18:14:30.428Z,5.63
2018-07-28T18:16:58.689Z,5.97
2018-07-28T18:19:26.940Z,5.13
2018-07-28T18:21:55.140Z,5.30
2018-07-28T18:24:23.425Z,5.40
2018-07-28T18:26:51.589Z,5.37
2018-07-28T18:29:19.794Z,6.17
2018-07-28T18:31:47.996Z,6.00
2018-07-28T18:34:16.661Z,6.47
2018-07-28T18:36:44.897Z,5.50
2018-07-28T18:39:13.127Z,5.53
2018-07-28T18:41:41.539Z,5.77
2018-07-28T18:44:09.951Z,5.50
2018-07-28T18:46:52.580Z,5.40
2018-07-28T18:49:20.737Z,5.60
2018-07-28T18:51:49.167Z,6.53
2018-07-28T18:54:17.371Z,6.13
2018-07-28T18:56:45.717Z,5.70
2018-07-28T18:59:13.917Z,5.83
2018-07-28T19:01:42.042Z,6.00
2018-07-28T19:04:10.223Z,5.80
2018-07-28T19:06:38.399Z,5.67
2018-07-28T19:09:12.761Z,6.20
2018-07-28T19:11:41.234Z,5.73
2018-07-28T19:14:14.784Z,5.20
2018-07-28T19:16:48.706Z,4.90
2018-07-28T19:19:18.115Z,5.70
2018-07-28T19:21:46.877Z,6.57
2018-07-28T19:24:15.358Z,6.43
2018-07-28T19:26:43.573Z,6.03
2018-07-28T19:29:17.199Z,6.10
2018-07-28T19:31:45.389Z,5.37
2018-07-28T19:34:14.412Z,6.30
2018-07-28T19:36:47.978Z,6.13
2018-07-28T19:39:16.142Z,5.77
2018-07-28T19:41:49.605Z,6.10
2018-07-28T19:44:17.816Z,6.00
2018-07-28T19:46:46.004Z,6.57
2018-07-28T19:49:14.166Z,7.00
2018-07-28T19:51:42.367Z,6.10
2018-07-28T19:54:10.603Z,6.30
2018-07-28T19:56:38.817Z,6.47
2018-07-28T19:59:07.008Z,6.17
2018-07-28T20:01:35.205Z,5.77
2018-07-28T20:04:03.397Z,6.13
2018-07-28T20:06:31.707Z,6.00
2018-07-28T20:08:59.892Z,6.17
2018-07-28T20:11:28.103Z,6.47
2018-07-28T20:13:56.330Z,6.47
2018-07-28T20:16:24.607Z,6.07
2018-07-28T20:18:52.830Z,6.20
2018-07-28T20:21:21.029Z,6.60
2018-07-28T20:23:49.232Z,6.53
2018-07-28T20:26:17.452Z,6.40
2018-07-28T20:28:45.599Z,6.33
2018-07-28T20:31:13.809Z,6.73
2018-07-28T20:33:41.964Z,6.50
2018-07-28T20:36:10.152Z,6.17
2018-07-28T20:38:38.373Z,6.43
2018-07-28T20:41:06.636Z,7.67
2018-07-28T20:43:34.853Z,7.27
2018-07-28T20:46:03.092Z,6.10
2018-07-28T20:48:31.233Z,6.00
2018-07-28T20:50:59.441Z,7.13
2018-07-28T20:53:27.590Z,6.70
2018-07-28T20:55:55.794Z,7.23
2018-07-28T20:58:23.971Z,6.23
2018-07-28T21:00:52.469Z,6.47
2018-07-28T21:03:20.707Z,6.47
2018-07-28T21:05:48.879Z,6.20
2018-07-28T21:08:17.402Z,6.60
2018-07-28T21:10:45.612Z,6.23
2018-07-28T21:13:13.868Z,5.40
2018-07-28T21:15:42.042Z,6.80
2018-07-28T21:18:10.252Z,6.83
2018-07-28T21:23:27.211Z,6.30
2018-07-28T21:25:55.365Z,6.60
2018-07-28T21:28:25.571Z,6.07
2018-07-28T21:30:53.738Z,6.03
2018-07-28T21:33:22.244Z,6.53
2018-07-28T21:35:50.392Z,6.23
2018-07-28T21:38:18.915Z,6.53
2018-07-28T21:40:47.171Z,7.10
2018-07-28T21:45:47.006Z,6.47
2018-07-28T21:48:15.174Z,6.23
2018-07-28T21:50:43.337Z,7.00
2018-07-28T21:53:11.509Z,5.60
2018-07-28T21:55:39.667Z,6.50
2018-07-28T21:58:07.831Z,6.37
2018-07-28T22:00:41.441Z,6.20
2018-07-28T22:03:09.634Z,6.00
2018-07-28T22:05:37.784Z,6.70
2018-07-28T22:08:05.987Z,5.73
2018-07-28T22:10:34.138Z,7.00
2018-07-28T22:13:02.318Z,7.07
2018-07-28T22:15:31.549Z,5.70
2018-07-28T22:17:59.711Z,6.93
2018-07-28T22:20:27.871Z,6.10
2018-07-28T22:22:56.011Z,5.90
2018-07-28T22:25:24.187Z,5.43
2018-07-28T22:27:52.376Z,6.13
2018-07-28T22:30:20.509Z,6.00
2018-07-28T22:32:48.672Z,4.90
2018-07-28T22:35:16.833Z,5.77
2018-07-28T22:37:45.018Z,5.93
2018-07-28T22:40:13.555Z,5.90
2018-07-28T22:42:44.013Z,5.90
2018-07-28T22:45:12.212Z,4.77
2018-07-28T22:47:40.484Z,5.80
2018-07-28T22:50:08.957Z,5.60
2018-07-28T22:52:45.372Z,5.63
2018-07-28T22:55:13.549Z,5.60
2018-07-28T22:57:41.703Z,4.80
2018-07-28T23:00:09.907Z,5.57
2018-07-28T23:02:38.088Z,5.13
2018-07-28T23:05:06.716Z,5.40
2018-07-28T23:07:35.014Z,6.00
2018-07-28T23:10:03.668Z,6.10
2018-07-28T23:12:31.849Z,5.40
2018-07-28T23:15:00.074Z,5.40
2018-07-28T23:17:28.253Z,5.17
2018-07-28T23:19:56.420Z,5.27
2018-07-28T23:22:24.590Z,5.57
2018-07-28T23:24:52.791Z,5.03
2018-07-28T23:27:20.992Z,5.73
2018-07-28T23:29:49.171Z,5.00
2018-07-28T23:32:17.352Z,4.77
2018-07-28T23:34:45.500Z,5.03
2018-07-28T23:37:13.691Z,5.67
2018-07-28T23:39:41.880Z,5.33
2018-07-28T23:42:10.018Z,5.50
2018-07-28T23:44:38.235Z,5.30
2018-07-28T23:47:06.406Z,5.43
2018-07-28T23:49:34.613Z,5.47
2018-07-28T23:52:02.827Z,5.87
2018-07-28T23:54:31.049Z,5.77
2018-07-28T23:56:59.245Z,5.43
2018-07-28T23:59:27.389Z,5.30
